createdAt,value
2018-03-06T00:01:09.789Z,1.60
2018-03-06T00:03:37.376Z,1.60
2018-03-06T00:06:04.914Z,1.60
2018-03-06T00:08:32.490Z,1.50
2018-03-06T00:11:00.654Z,1.50
2018-03-06T00:13:28.215Z,1.40
2018-03-06T00:15:56.291Z,1.30
2018-03-06T00:18:23.857Z,1.30
2018-03-06T00:20:51.395Z,1.30
2018-03-06T00:23:18.947Z,1.20
2018-03-06T00:25:46.541Z,1.20
2018-03-06T00:28:14.371Z,1.20
2018-03-06T00:30:43.278Z,1.10
2018-03-06T00:33:10.917Z,1.00
2018-03-06T00:35:39.223Z,1.10
2018-03-06T00:38:07.574Z,1.00
2018-03-06T00:40:35.911Z,1.00
2018-03-06T00:43:03.478Z,0.90
2018-03-06T00:45:31.069Z,0.90
2018-03-06T00:47:58.629Z,0.90
2018-03-06T00:50:26.978Z,0.80
2018-03-06T00:52:54.554Z,0.70
2018-03-06T00:55:22.106Z,0.80
2018-03-06T00:57:49.718Z,0.80
2018-03-06T01:00:17.301Z,0.80
2018-03-06T01:02:44.863Z,0.90
2018-03-06T01:05:12.409Z,0.90
2018-03-06T01:07:39.978Z,1.00
2018-03-06T01:10:07.509Z,1.00
2018-03-06T01:12:35.817Z,1.10
2018-03-06T01:15:03.342Z,1.00
2018-03-06T01:17:31.674Z,1.10
2018-03-06T01:19:59.238Z,1.00
2018-03-06T01:22:26.821Z,1.10
2018-03-06T01:24:54.413Z,1.10
2018-03-06T01:27:22.701Z,1.10
2018-03-06T01:29:50.711Z,1.00
2018-03-06T01:32:18.343Z,1.10
2018-03-06T01:34:45.900Z,1.10
2018-03-06T01:37:13.426Z,1.10
2018-03-06T01:39:41.750Z,1.10
2018-03-06T01:42:09.326Z,1.00
2018-03-06T01:44:36.874Z,1.00
2018-03-06T01:47:04.458Z,1.00
2018-03-06T01:49:32.029Z,1.00
2018-03-06T01:51:59.578Z,0.90
2018-03-06T01:54:27.135Z,0.90
2018-03-06T01:56:54.649Z,0.90
2018-03-06T01:59:23.004Z,0.80
2018-03-06T02:01:50.584Z,0.70
2018-03-06T02:04:18.912Z,0.70
2018-03-06T02:06:46.465Z,0.60
2018-03-06T02:09:14.075Z,0.60
2018-03-06T02:11:42.391Z,0.60
2018-03-06T02:14:09.947Z,0.50
2018-03-06T02:16:37.495Z,0.50
2018-03-06T02:19:05.839Z,0.50
2018-03-06T02:21:33.365Z,0.40
2018-03-06T02:24:00.944Z,0.50
2018-03-06T02:26:28.516Z,0.50
2018-03-06T02:28:56.862Z,0.50
2018-03-06T02:31:24.413Z,0.50
2018-03-06T02:33:51.968Z,0.50
2018-03-06T02:36:19.505Z,0.40
2018-03-06T02:38:47.803Z,0.30
2018-03-06T02:41:15.410Z,0.30
2018-03-06T02:43:42.956Z,0.30
2018-03-06T02:46:13.384Z,0.20
2018-03-06T02:48:40.939Z,0.20
2018-03-06T02:51:08.493Z,0.10
2018-03-06T02:53:36.371Z,0.00
2018-03-06T02:56:03.950Z,0.00
2018-03-06T02:58:31.530Z,-0.10
2018-03-06T03:00:59.116Z,-0.10
2018-03-06T03:03:27.474Z,-0.20
2018-03-06T03:05:55.073Z,-0.20
2018-03-06T03:08:22.624Z,-0.20
2018-03-06T03:10:50.212Z,-0.20
2018-03-06T03:13:17.758Z,-0.20
2018-03-06T03:15:45.373Z,-0.20
2018-03-06T03:18:12.934Z,-0.30
2018-03-06T03:20:40.491Z,-0.30
2018-03-06T03:23:08.063Z,-0.30
2018-03-06T03:25:35.602Z,-0.40
2018-03-06T03:28:03.150Z,-0.40
2018-03-06T03:30:30.710Z,-0.50
2018-03-06T03:32:58.262Z,-0.50
2018-03-06T03:35:25.830Z,-0.60
2018-03-06T03:37:53.439Z,-0.60
2018-03-06T03:40:22.463Z,-0.70
2018-03-06T03:42:50.056Z,-0.80
2018-03-06T03:45:17.604Z,-0.70
2018-03-06T03:47:45.158Z,-0.80
2018-03-06T03:50:12.706Z,-0.80
2018-03-06T03:52:40.264Z,-0.80
2018-03-06T03:55:07.847Z,-0.80
2018-03-06T03:57:35.423Z,-0.90
2018-03-06T04:00:02.987Z,-0.90
2018-03-06T04:02:30.543Z,-0.90
2018-03-06T04:04:58.088Z,-0.90
2018-03-06T04:07:25.667Z,-1.00
2018-03-06T04:09:53.226Z,-1.00
2018-03-06T04:12:20.806Z,-1.00
2018-03-06T04:14:48.340Z,-1.00
2018-03-06T04:17:15.913Z,-1.10
2018-03-06T04:19:43.474Z,-1.10
2018-03-06T04:22:11.082Z,-1.10
2018-03-06T04:24:38.633Z,-1.10
2018-03-06T04:27:06.942Z,-1.10
2018-03-06T04:29:34.510Z,-1.20
2018-03-06T04:32:02.077Z,-1.10
2018-03-06T04:34:30.805Z,-1.20
2018-03-06T04:36:58.365Z,-1.20
2018-03-06T04:39:25.964Z,-1.20
2018-03-06T04:41:53.913Z,-1.30
2018-03-06T04:44:22.251Z,-1.30
2018-03-06T04:46:49.789Z,-1.40
2018-03-06T04:49:17.346Z,-1.30
2018-03-06T04:51:44.877Z,-1.40
2018-03-06T04:54:13.223Z,-1.40
2018-03-06T04:56:40.786Z,-1.50
2018-03-06T04:59:08.352Z,-1.40
2018-03-06T05:01:36.751Z,-1.50
2018-03-06T05:04:04.490Z,-1.60
2018-03-06T05:06:32.070Z,-1.50
2018-03-06T05:08:59.679Z,-1.50
2018-03-06T05:11:27.253Z,-1.50
2018-03-06T05:13:55.096Z,-1.50
2018-03-06T05:16:22.675Z,-1.50
2018-03-06T05:18:50.258Z,-1.50
2018-03-06T05:21:18.060Z,-1.50
2018-03-06T05:23:46.367Z,-1.50
2018-03-06T05:26:14.954Z,-1.60
2018-03-06T05:28:42.495Z,-1.50
2018-03-06T05:31:10.066Z,-1.50
2018-03-06T05:33:37.623Z,-1.50
2018-03-06T05:36:05.970Z,-1.50
2018-03-06T05:38:33.505Z,-1.60
2018-03-06T05:41:01.082Z,-1.50
2018-03-06T05:43:29.470Z,-1.50
2018-03-06T05:45:57.027Z,-1.50
2018-03-06T05:48:24.587Z,-1.40
2018-03-06T05:50:52.142Z,-1.30
2018-03-06T05:53:19.670Z,-1.30
2018-03-06T05:55:47.244Z,-1.20
2018-03-06T05:58:14.826Z,-1.20
2018-03-06T06:00:42.394Z,-1.10
2018-03-06T06:03:09.946Z,-1.10
2018-03-06T06:05:38.334Z,-1.10
2018-03-06T06:08:05.908Z,-1.10
2018-03-06T06:10:34.211Z,-1.10
2018-03-06T06:13:01.783Z,-1.20
2018-03-06T06:15:29.340Z,-1.10
2018-03-06T06:17:56.925Z,-1.00
2018-03-06T06:20:24.441Z,-1.00
2018-03-06T06:22:52.013Z,-0.90
2018-03-06T06:25:19.546Z,-0.80
2018-03-06T06:27:47.133Z,-0.80
2018-03-06T06:30:15.440Z,-0.60
2018-03-06T06:32:42.971Z,-0.70
2018-03-06T06:35:11.250Z,-0.30
2018-03-06T06:37:39.609Z,-0.30
2018-03-06T06:40:07.945Z,-0.20
2018-03-06T06:42:35.486Z,-0.20
2018-03-06T06:45:03.025Z,-0.10
2018-03-06T06:47:31.344Z,0.00
2018-03-06T06:49:58.879Z,-0.10
2018-03-06T06:52:26.482Z,0.10
2018-03-06T06:54:53.950Z,0.20
2018-03-06T06:57:21.608Z,0.30
2018-03-06T06:59:50.677Z,0.50
2018-03-06T07:02:19.063Z,0.50
2018-03-06T07:04:46.603Z,0.60
2018-03-06T07:07:14.251Z,0.70
2018-03-06T07:09:42.820Z,1.10
2018-03-06T07:12:10.354Z,1.00
2018-03-06T07:14:37.914Z,1.20
2018-03-06T07:17:05.542Z,1.30
2018-03-06T07:19:33.183Z,1.50
2018-03-06T07:22:00.771Z,1.70
2018-03-06T07:24:28.344Z,1.80
2018-03-06T07:26:55.883Z,2.00
2018-03-06T07:29:23.470Z,2.10
2018-03-06T07:31:51.026Z,2.30
2018-03-06T07:34:18.586Z,2.40
2018-03-06T07:36:46.123Z,2.60
2018-03-06T07:39:13.754Z,2.70
2018-03-06T07:41:42.339Z,2.90
2018-03-06T07:44:10.700Z,2.90
2018-03-06T07:46:38.229Z,2.80
2018-03-06T07:49:05.781Z,3.00
2018-03-06T07:51:33.312Z,3.20
2018-03-06T07:54:01.644Z,3.00
2018-03-06T07:56:29.194Z,2.90
2018-03-06T07:58:57.523Z,3.30
2018-03-06T08:01:25.830Z,3.60
2018-03-06T08:03:53.360Z,3.60
2018-03-06T08:06:21.727Z,4.30
2018-03-06T08:08:49.268Z,4.20
2018-03-06T08:11:16.831Z,4.40
2018-03-06T08:13:44.389Z,4.50
2018-03-06T08:16:11.910Z,4.70
2018-03-06T08:18:39.486Z,4.40
2018-03-06T08:21:07.011Z,4.50
2018-03-06T08:23:35.335Z,5.20
2018-03-06T08:26:02.866Z,5.10
2018-03-06T08:28:30.459Z,5.50
2018-03-06T08:30:58.002Z,5.80
2018-03-06T08:33:25.971Z,5.90
2018-03-06T08:35:53.573Z,6.00
2018-03-06T08:38:21.883Z,6.50
2018-03-06T08:40:50.190Z,6.60
2018-03-06T08:43:17.710Z,6.50
2018-03-06T08:45:46.038Z,7.00
2018-03-06T08:48:13.554Z,7.00
2018-03-06T08:50:42.481Z,7.60
2018-03-06T08:53:10.062Z,7.60
2018-03-06T08:55:37.883Z,8.20
2018-03-06T08:58:06.162Z,9.00
2018-03-06T09:00:34.480Z,9.50
2018-03-06T09:03:02.034Z,9.40
2018-03-06T09:05:29.621Z,9.00
2018-03-06T09:07:57.197Z,8.90
2018-03-06T09:10:24.769Z,9.50
2018-03-06T09:12:53.062Z,9.70
2018-03-06T09:15:21.375Z,9.80
2018-03-06T09:17:48.892Z,9.70
2018-03-06T09:20:17.812Z,10.70
2018-03-06T09:22:45.389Z,10.70
2018-03-06T09:25:12.957Z,11.10
2018-03-06T09:27:40.516Z,11.40
2018-03-06T09:30:08.061Z,11.60
2018-03-06T09:32:35.630Z,12.10
2018-03-06T09:35:03.977Z,13.00
2018-03-06T09:37:32.268Z,13.20
2018-03-06T09:39:59.790Z,13.10
2018-03-06T09:42:28.127Z,13.40
2018-03-06T09:44:55.654Z,13.30
2018-03-06T09:47:23.244Z,13.80
2018-03-06T09:49:50.780Z,14.40
2018-03-06T09:52:18.376Z,14.30
2018-03-06T09:54:45.896Z,13.80
2018-03-06T09:57:13.457Z,13.50
2018-03-06T09:59:41.039Z,14.00
2018-03-06T10:02:08.561Z,14.20
2018-03-06T10:04:36.865Z,14.50
2018-03-06T10:07:04.380Z,14.50
2018-03-06T10:09:31.959Z,14.70
2018-03-06T10:12:00.666Z,14.40
2018-03-06T10:14:28.967Z,13.10
2018-03-06T10:16:57.122Z,13.10
2018-03-06T10:19:24.693Z,13.90
2018-03-06T10:21:52.230Z,14.50
2018-03-06T10:24:20.575Z,15.00
2018-03-06T10:26:49.039Z,14.90
2018-03-06T10:29:16.599Z,14.70
2018-03-06T10:31:44.163Z,14.20
2018-03-06T10:34:11.727Z,13.60
2018-03-06T10:36:39.263Z,13.40
2018-03-06T10:39:06.809Z,13.60
2018-03-06T10:41:34.372Z,13.70
2018-03-06T10:44:01.931Z,13.10
2018-03-06T10:46:29.513Z,13.30
2018-03-06T10:48:57.330Z,12.70
2018-03-06T10:51:24.906Z,13.10
2018-03-06T10:53:53.216Z,13.00
2018-03-06T10:56:20.767Z,13.00
2018-03-06T10:58:48.338Z,13.00
2018-03-06T11:01:21.465Z,13.50
2018-03-06T11:03:49.015Z,13.70
2018-03-06T11:06:16.553Z,13.80
2018-03-06T11:08:44.100Z,14.60
2018-03-06T11:11:11.641Z,14.50
2018-03-06T11:13:39.945Z,14.90
2018-03-06T11:16:07.461Z,15.10
2018-03-06T11:18:35.034Z,15.40
2018-03-06T11:21:03.321Z,15.00
2018-03-06T11:23:30.889Z,15.00
2018-03-06T11:25:58.419Z,15.20
2018-03-06T11:28:25.946Z,15.10
2018-03-06T11:30:53.490Z,15.10
2018-03-06T11:33:21.006Z,14.50
2018-03-06T11:35:50.090Z,15.00
2018-03-06T11:38:17.609Z,15.00
2018-03-06T11:40:45.141Z,15.50
2018-03-06T11:43:13.425Z,15.80
2018-03-06T11:45:41.726Z,15.80
2018-03-06T11:48:09.286Z,15.80
2018-03-06T11:50:37.672Z,15.50
2018-03-06T11:53:05.224Z,15.40
2018-03-06T11:55:32.794Z,15.70
2018-03-06T11:58:00.320Z,16.00
2018-03-06T12:00:28.646Z,16.60
2018-03-06T12:02:56.194Z,16.50
2018-03-06T12:05:23.731Z,16.70
2018-03-06T12:07:51.300Z,16.90
2018-03-06T12:10:18.886Z,17.40
2018-03-06T12:12:47.198Z,17.10
2018-03-06T12:15:14.760Z,17.00
2018-03-06T12:17:43.054Z,18.10
2018-03-06T12:20:11.386Z,17.50
2018-03-06T12:22:38.894Z,17.50
2018-03-06T12:25:07.200Z,17.00
2018-03-06T12:27:34.758Z,16.90
2018-03-06T12:30:02.329Z,17.30
2018-03-06T12:32:29.841Z,17.50
2018-03-06T12:34:58.174Z,16.90
2018-03-06T12:37:26.454Z,16.20
2018-03-06T12:39:54.035Z,16.10
2018-03-06T12:42:22.330Z,16.10
2018-03-06T12:44:50.678Z,16.00
2018-03-06T12:47:18.203Z,16.00
2018-03-06T12:49:45.767Z,15.70
2018-03-06T12:52:13.285Z,15.90
2018-03-06T12:54:40.840Z,15.50
2018-03-06T12:57:09.150Z,14.80
2018-03-06T12:59:37.452Z,14.80
2018-03-06T13:02:04.962Z,14.80
2018-03-06T13:04:32.506Z,14.50
2018-03-06T13:07:00.021Z,14.20
2018-03-06T13:09:27.548Z,14.10
2018-03-06T13:11:55.106Z,14.30
2018-03-06T13:14:22.638Z,14.60
2018-03-06T13:19:24.746Z,14.60
2018-03-06T13:21:53.064Z,14.90
2018-03-06T13:24:20.588Z,14.80
2018-03-06T13:26:48.938Z,16.10
2018-03-06T13:29:16.450Z,16.00
2018-03-06T13:31:44.013Z,15.70
2018-03-06T13:34:11.583Z,15.80
2018-03-06T13:36:39.144Z,16.10
2018-03-06T13:39:08.616Z,16.30
2018-03-06T13:41:36.192Z,16.50
2018-03-06T13:44:04.474Z,16.30
2018-03-06T13:46:32.822Z,16.00
2018-03-06T13:49:00.364Z,15.90
2018-03-06T13:51:27.903Z,15.90
2018-03-06T13:53:55.431Z,16.00
2018-03-06T13:56:23.731Z,15.90
2018-03-06T13:58:51.284Z,15.90
2018-03-06T14:01:18.823Z,16.00
2018-03-06T14:03:47.169Z,15.80
2018-03-06T14:06:14.743Z,15.90
2018-03-06T14:08:42.282Z,15.80
2018-03-06T14:11:09.886Z,15.40
2018-03-06T14:13:37.483Z,15.20
2018-03-06T14:16:05.026Z,15.00
2018-03-06T14:18:32.578Z,15.10
2018-03-06T14:21:00.866Z,15.30
2018-03-06T14:23:28.421Z,15.20
2018-03-06T14:25:55.957Z,14.90
2018-03-06T14:28:23.514Z,14.90
2018-03-06T14:30:51.066Z,15.00
2018-03-06T14:33:18.607Z,14.90
2018-03-06T14:35:46.924Z,14.70
2018-03-06T14:38:15.234Z,15.20
2018-03-06T14:40:42.770Z,15.20
2018-03-06T14:43:11.080Z,15.30
2018-03-06T14:45:38.630Z,15.30
2018-03-06T14:48:06.930Z,14.60
2018-03-06T14:50:34.456Z,14.60
2018-03-06T14:53:02.778Z,14.10
2018-03-06T14:55:30.342Z,14.00
2018-03-06T14:57:57.882Z,13.70
2018-03-06T15:00:25.411Z,13.30
2018-03-06T15:02:53.712Z,12.80
2018-03-06T15:05:21.252Z,12.70
2018-03-06T15:07:49.553Z,12.50
2018-03-06T15:10:17.064Z,12.50
2018-03-06T15:12:44.618Z,12.10
2018-03-06T15:15:12.136Z,12.20
2018-03-06T15:17:39.672Z,12.00
2018-03-06T15:20:07.945Z,11.90
2018-03-06T15:22:36.243Z,11.90
2018-03-06T15:25:03.801Z,11.80
2018-03-06T15:27:31.343Z,11.90
2018-03-06T15:29:59.615Z,11.60
2018-03-06T15:32:27.918Z,11.50
2018-03-06T15:34:55.427Z,11.50
2018-03-06T15:37:22.975Z,11.40
2018-03-06T15:39:53.835Z,11.20
2018-03-06T15:42:21.346Z,11.10
2018-03-06T15:44:48.889Z,11.00
2018-03-06T15:47:16.408Z,10.90
2018-03-06T15:49:43.942Z,10.80
2018-03-06T15:52:11.458Z,10.70
2018-03-06T15:54:39.762Z,10.60
2018-03-06T15:57:07.290Z,10.60
2018-03-06T15:59:35.594Z,10.50
2018-03-06T16:02:03.114Z,10.40
2018-03-06T16:04:31.418Z,10.30
2018-03-06T16:06:58.987Z,10.30
2018-03-06T16:09:27.280Z,10.10
2018-03-06T16:11:54.794Z,10.10
2018-03-06T16:14:22.343Z,10.10
2018-03-06T16:16:49.867Z,10.00
2018-03-06T16:19:17.443Z,9.90
2018-03-06T16:21:44.949Z,9.80
2018-03-06T16:24:13.263Z,9.60
2018-03-06T16:26:40.766Z,9.60
2018-03-06T16:29:08.296Z,9.50
2018-03-06T16:31:35.817Z,9.40
2018-03-06T16:34:03.339Z,9.30
2018-03-06T16:36:30.846Z,9.20
2018-03-06T16:38:58.363Z,9.10
2018-03-06T16:41:25.866Z,8.90
2018-03-06T16:43:53.848Z,8.80
2018-03-06T16:46:21.358Z,8.70
2018-03-06T16:48:49.629Z,8.40
2018-03-06T16:51:17.164Z,8.40
2018-03-06T16:53:44.675Z,8.30
2018-03-06T16:56:12.962Z,8.10
2018-03-06T16:58:40.474Z,7.90
2018-03-06T17:01:08.014Z,7.90
2018-03-06T17:03:35.875Z,7.70
2018-03-06T17:06:03.428Z,7.60
2018-03-06T17:08:30.962Z,7.50
2018-03-06T17:10:59.258Z,7.20
2018-03-06T17:13:26.783Z,7.10
2018-03-06T17:15:55.087Z,7.00
2018-03-06T17:18:22.596Z,6.90
2018-03-06T17:20:50.138Z,6.80
2018-03-06T17:23:17.680Z,6.70
2018-03-06T17:25:45.946Z,6.50
2018-03-06T17:28:13.451Z,6.40
2018-03-06T17:30:40.966Z,6.30
2018-03-06T17:33:09.234Z,6.10
2018-03-06T17:35:36.765Z,6.00
2018-03-06T17:38:04.270Z,6.10
2018-03-06T17:40:31.807Z,6.00
2018-03-06T17:43:00.075Z,5.80
2018-03-06T17:45:27.593Z,5.80
2018-03-06T17:47:55.090Z,5.80
2018-03-06T17:50:23.383Z,5.80
2018-03-06T17:52:51.659Z,5.70
2018-03-06T17:55:20.891Z,5.60
2018-03-06T17:57:48.404Z,5.50
2018-03-06T18:00:16.066Z,5.50
2018-03-06T18:02:44.339Z,5.20
2018-03-06T18:05:11.879Z,5.10
2018-03-06T18:07:39.384Z,5.10
2018-03-06T18:10:07.670Z,5.00
2018-03-06T18:12:35.186Z,4.90
2018-03-06T18:15:03.479Z,4.90
2018-03-06T18:17:30.985Z,4.80
2018-03-06T18:19:58.486Z,4.90
2018-03-06T18:22:26.774Z,4.60
2018-03-06T18:24:54.286Z,4.60
2018-03-06T18:27:21.847Z,4.60
2018-03-06T18:29:49.377Z,4.60
2018-03-06T18:32:16.945Z,4.50
2018-03-06T18:34:45.193Z,4.40
2018-03-06T18:37:13.547Z,4.40
2018-03-06T18:39:41.055Z,4.30
2018-03-06T18:42:08.638Z,4.30
2018-03-06T18:44:37.425Z,4.30
2018-03-06T18:47:05.308Z,4.20
2018-03-06T18:49:35.219Z,4.10
2018-03-06T18:52:03.555Z,4.00
2018-03-06T18:54:31.068Z,3.90
2018-03-06T18:56:58.574Z,4.00
2018-03-06T18:59:26.098Z,3.90
2018-03-06T19:05:05.184Z,3.80
2018-03-06T19:07:32.693Z,3.70
2018-03-06T19:10:00.236Z,3.70
2018-03-06T19:12:27.772Z,3.80
2018-03-06T19:14:56.092Z,3.90
2018-03-06T19:17:23.619Z,3.90
2018-03-06T19:19:51.950Z,4.10
2018-03-06T19:22:19.474Z,4.00
2018-03-06T19:24:47.790Z,4.20
2018-03-06T19:27:15.323Z,4.10
2018-03-06T19:29:42.902Z,4.40
2018-03-06T19:32:10.467Z,4.40
2018-03-06T19:34:37.991Z,4.50
2018-03-06T19:37:06.399Z,4.50
2018-03-06T19:39:33.918Z,4.50
2018-03-06T19:42:02.245Z,4.50
2018-03-06T19:44:29.817Z,4.50
2018-03-06T19:46:57.329Z,4.60
2018-03-06T19:49:24.846Z,4.60
2018-03-06T19:51:52.371Z,4.60
2018-03-06T19:54:20.706Z,4.60
2018-03-06T19:56:48.991Z,4.70
2018-03-06T19:59:16.544Z,4.60
2018-03-06T20:01:44.054Z,4.70
2018-03-06T20:04:11.629Z,4.70
2018-03-06T20:06:39.164Z,4.70
2018-03-06T20:09:08.046Z,4.70
2018-03-06T20:11:35.609Z,4.60
2018-03-06T20:14:04.591Z,4.90
2018-03-06T20:16:32.883Z,5.00
2018-03-06T20:19:06.208Z,4.90
2018-03-06T20:21:33.769Z,5.10
2018-03-06T20:24:06.972Z,5.20
2018-03-06T20:26:34.555Z,5.30
2018-03-06T20:29:02.655Z,5.40
2018-03-06T20:31:36.573Z,5.50
2018-03-06T20:34:04.906Z,5.50
2018-03-06T20:36:32.424Z,5.50
2018-03-06T20:39:05.671Z,5.60
2018-03-06T20:41:33.208Z,5.70
2018-03-06T20:44:00.798Z,5.80
2018-03-06T20:46:33.875Z,5.90
2018-03-06T20:49:01.508Z,5.90
2018-03-06T20:51:29.052Z,5.80
2018-03-06T20:54:02.337Z,5.90
2018-03-06T20:56:30.802Z,5.90
2018-03-06T20:58:58.382Z,6.00
2018-03-06T21:01:25.946Z,6.10
2018-03-06T21:03:53.489Z,6.10
2018-03-06T21:06:21.027Z,6.10
2018-03-06T21:08:48.599Z,6.00
2018-03-06T21:11:16.137Z,6.10
2018-03-06T21:13:43.766Z,6.20
2018-03-06T21:16:11.262Z,6.20
2018-03-06T21:18:38.829Z,6.20
2018-03-06T21:21:06.360Z,6.20
2018-03-06T21:23:33.914Z,6.20
2018-03-06T21:26:01.450Z,6.20
2018-03-06T21:28:29.011Z,6.20
2018-03-06T21:30:56.559Z,6.10
2018-03-06T21:33:24.104Z,6.10
2018-03-06T21:35:51.620Z,6.20
2018-03-06T21:38:19.211Z,6.20
2018-03-06T21:40:46.726Z,6.10
2018-03-06T21:43:15.050Z,6.20
2018-03-06T21:45:43.509Z,6.20
2018-03-06T21:48:11.098Z,6.20
2018-03-06T21:50:38.800Z,6.10
2018-03-06T21:53:06.613Z,6.10
2018-03-06T21:55:34.208Z,6.10
2018-03-06T21:58:02.574Z,6.00
2018-03-06T22:00:30.188Z,5.90
2018-03-06T22:02:57.692Z,6.00
2018-03-06T22:05:25.229Z,5.90
2018-03-06T22:07:53.458Z,5.90
2018-03-06T22:10:21.790Z,5.90
2018-03-06T22:12:49.325Z,5.90
2018-03-06T22:15:18.109Z,5.80
2018-03-06T22:17:45.651Z,5.80
2018-03-06T22:20:13.201Z,5.80
2018-03-06T22:22:40.731Z,5.80
2018-03-06T22:25:08.273Z,5.80
2018-03-06T22:27:35.810Z,5.80
2018-03-06T22:30:03.404Z,5.70
2018-03-06T22:32:30.950Z,5.70
2018-03-06T22:34:58.515Z,5.70
2018-03-06T22:37:26.368Z,5.70
2018-03-06T22:39:55.604Z,5.70
2018-03-06T22:42:23.137Z,5.70
2018-03-06T22:44:50.698Z,5.60
2018-03-06T22:47:18.268Z,5.60
2018-03-06T22:49:45.794Z,5.50
2018-03-06T22:52:13.347Z,5.50
2018-03-06T22:54:42.435Z,5.50
2018-03-06T22:57:09.987Z,5.40
2018-03-06T22:59:38.261Z,5.40
2018-03-06T23:02:06.562Z,5.30
2018-03-06T23:04:34.070Z,5.20
2018-03-06T23:07:01.606Z,5.30
2018-03-06T23:09:29.175Z,5.30
2018-03-06T23:11:56.745Z,5.30
2018-03-06T23:14:24.273Z,5.30
2018-03-06T23:16:51.799Z,5.30
2018-03-06T23:19:20.079Z,5.20
2018-03-06T23:21:48.378Z,5.20
2018-03-06T23:24:15.921Z,5.20
2018-03-06T23:26:43.455Z,5.20
2018-03-06T23:29:11.006Z,5.20
2018-03-06T23:31:38.527Z,5.20
2018-03-06T23:34:06.115Z,5.20
2018-03-06T23:36:33.670Z,5.10
2018-03-06T23:39:01.220Z,5.10
2018-03-06T23:41:28.749Z,5.10
2018-03-06T23:43:56.313Z,5.00
2018-03-06T23:46:24.632Z,4.90
2018-03-06T23:48:52.181Z,4.80
2018-03-06T23:51:19.724Z,4.90
2018-03-06T23:53:47.283Z,4.90
2018-03-06T23:56:14.800Z,4.90
2018-03-06T23:58:42.396Z,5.00
